Antlers, Oklahoma
Current Conditions -  °F | °C
As of 1:55 AM on Friday 31 Oct 2014 (Local Time) from KHHW Reporting Station
Clear Clear  
Wind Chill: 53°   Ceiling: Unl
Heat Index: 53°   Visibility: 10mi
Dew Point: 42°   Wind: 7mph
Humidity: 66%   Direction: 290°WNW
Pressure: 30.14"   Gusts: NA
Location:  34.23°N, 95.62°W
Report Text: KHHW 310655Z AUTO 29006KT 10SM CLR 11/05 A3014 RMK AO2 T01140053
Loading
Personal Weather Stations






























Interactive Weather Map
Tropical Storm Tracking
New forecast layout! Learn more

10-Day Weather Forecast

Advertisements
Track Severe Weather on mobile